sensor_id;sensor_type;location;lat;lon;timestamp;P1;durP1;ratioP1;P2;durP2;ratioP2
24143;SDS011;12307;50.828;6.080;2023-05-10T00:01:07;1.20;;;1.10;;
24143;SDS011;12307;50.828;6.080;2023-05-10T00:03:32;1.08;;;1.00;;
24143;SDS011;12307;50.828;6.080;2023-05-10T00:05:59;1.35;;;1.25;;
24143;SDS011;12307;50.828;6.080;2023-05-10T00:08:25;1.30;;;1.20;;
24143;SDS011;12307;50.828;6.080;2023-05-10T00:10:51;1.10;;;1.10;;
24143;SDS011;12307;50.828;6.080;2023-05-10T00:13:17;1.27;;;1.17;;
24143;SDS011;12307;50.828;6.080;2023-05-10T00:15:43;1.40;;;1.30;;
24143;SDS011;12307;50.828;6.080;2023-05-10T00:18:09;1.40;;;1.30;;
24143;SDS011;12307;50.828;6.080;2023-05-10T00:20:34;1.20;;;1.10;;
24143;SDS011;12307;50.828;6.080;2023-05-10T00:23:01;1.10;;;1.05;;
24143;SDS011;12307;50.828;6.080;2023-05-10T00:25:27;1.00;;;1.00;;
24143;SDS011;12307;50.828;6.080;2023-05-10T00:27:53;0.98;;;0.98;;
24143;SDS011;12307;50.828;6.080;2023-05-10T00:30:20;1.20;;;1.10;;
24143;SDS011;12307;50.828;6.080;2023-05-10T00:32:46;1.05;;;0.90;;
24143;SDS011;12307;50.828;6.080;2023-05-10T00:35:13;1.02;;;1.02;;
24143;SDS011;12307;50.828;6.080;2023-05-10T00:37:38;1.33;;;1.23;;
24143;SDS011;12307;50.828;6.080;2023-05-10T00:40:07;1.92;;;1.13;;
24143;SDS011;12307;50.828;6.080;2023-05-10T00:42:33;1.35;;;1.20;;
24143;SDS011;12307;50.828;6.080;2023-05-10T00:44:59;1.10;;;1.10;;
24143;SDS011;12307;50.828;6.080;2023-05-10T00:47:25;1.40;;;1.30;;
24143;SDS011;12307;50.828;6.080;2023-05-10T00:49:51;1.30;;;1.20;;
24143;SDS011;12307;50.828;6.080;2023-05-10T00:52:17;1.50;;;1.40;;
24143;SDS011;12307;50.828;6.080;2023-05-10T00:54:42;1.00;;;1.00;;
24143;SDS011;12307;50.828;6.080;2023-05-10T00:57:10;1.00;;;1.00;;
24143;SDS011;12307;50.828;6.080;2023-05-10T00:59:36;1.33;;;1.23;;
24143;SDS011;12307;50.828;6.080;2023-05-10T01:02:01;1.40;;;1.30;;
24143;SDS011;12307;50.828;6.080;2023-05-10T01:04:27;1.30;;;1.20;;
24143;SDS011;12307;50.828;6.080;2023-05-10T01:06:53;0.93;;;0.93;;
24143;SDS011;12307;50.828;6.080;2023-05-10T01:09:19;1.27;;;1.17;;
24143;SDS011;12307;50.828;6.080;2023-05-10T01:11:46;1.10;;;1.02;;
24143;SDS011;12307;50.828;6.080;2023-05-10T01:14:13;1.30;;;1.20;;
24143;SDS011;12307;50.828;6.080;2023-05-10T01:16:42;1.38;;;1.27;;
24143;SDS011;12307;50.828;6.080;2023-05-10T01:19:11;1.00;;;1.00;;
24143;SDS011;12307;50.828;6.080;2023-05-10T01:21:43;1.08;;;1.05;;
24143;SDS011;12307;50.828;6.080;2023-05-10T01:27:18;1.30;;;1.20;;
24143;SDS011;12307;50.828;6.080;2023-05-10T01:32:47;1.20;;;1.10;;
24143;SDS011;12307;50.828;6.080;2023-05-10T01:35:22;1.10;;;1.00;;
24143;SDS011;12307;50.828;6.080;2023-05-10T01:37:58;0.88;;;0.88;;
24143;SDS011;12307;50.828;6.080;2023-05-10T01:40:30;1.17;;;1.10;;
24143;SDS011;12307;50.828;6.080;2023-05-10T01:43:01;1.30;;;1.20;;
24143;SDS011;12307;50.828;6.080;2023-05-10T01:45:28;1.20;;;1.10;;
24143;SDS011;12307;50.828;6.080;2023-05-10T01:48:03;1.23;;;1.13;;
24143;SDS011;12307;50.828;6.080;2023-05-10T01:50:31;1.30;;;1.20;;
24143;SDS011;12307;50.828;6.080;2023-05-10T01:52:59;1.27;;;1.17;;
24143;SDS011;12307;50.828;6.080;2023-05-10T01:55:28;1.20;;;1.10;;
24143;SDS011;12307;50.828;6.080;2023-05-10T01:57:58;1.00;;;1.00;;
24143;SDS011;12307;50.828;6.080;2023-05-10T02:00:27;1.02;;;1.00;;
24143;SDS011;12307;50.828;6.080;2023-05-10T02:02:56;1.15;;;1.10;;
24143;SDS011;12307;50.828;6.080;2023-05-10T02:05:24;1.13;;;1.02;;
24143;SDS011;12307;50.828;6.080;2023-05-10T02:07:51;0.90;;;0.90;;
24143;SDS011;12307;50.828;6.080;2023-05-10T02:10:17;0.98;;;0.98;;
24143;SDS011;12307;50.828;6.080;2023-05-10T02:12:44;1.20;;;1.10;;
24143;SDS011;12307;50.828;6.080;2023-05-10T02:15:15;1.20;;;1.10;;
24143;SDS011;12307;50.828;6.080;2023-05-10T02:17:46;1.25;;;1.15;;
24143;SDS011;12307;50.828;6.080;2023-05-10T02:20:12;1.20;;;1.10;;
24143;SDS011;12307;50.828;6.080;2023-05-10T02:22:42;0.98;;;0.98;;
24143;SDS011;12307;50.828;6.080;2023-05-10T02:25:09;1.10;;;1.00;;
24143;SDS011;12307;50.828;6.080;2023-05-10T02:27:37;1.10;;;1.00;;
24143;SDS011;12307;50.828;6.080;2023-05-10T02:30:05;1.08;;;1.08;;
24143;SDS011;12307;50.828;6.080;2023-05-10T02:32:32;1.30;;;1.00;;
24143;SDS011;12307;50.828;6.080;2023-05-10T02:34:59;0.82;;;0.82;;
24143;SDS011;12307;50.828;6.080;2023-05-10T02:37:26;0.93;;;0.93;;
24143;SDS011;12307;50.828;6.080;2023-05-10T02:39:54;1.17;;;1.08;;
24143;SDS011;12307;50.828;6.080;2023-05-10T02:42:23;1.00;;;1.00;;
24143;SDS011;12307;50.828;6.080;2023-05-10T02:44:52;1.20;;;1.10;;
24143;SDS011;12307;50.828;6.080;2023-05-10T02:47:20;1.45;;;1.10;;
24143;SDS011;12307;50.828;6.080;2023-05-10T02:49:46;1.20;;;1.10;;
24143;SDS011;12307;50.828;6.080;2023-05-10T02:52:12;1.08;;;1.00;;
24143;SDS011;12307;50.828;6.080;2023-05-10T02:54:43;1.00;;;1.00;;
24143;SDS011;12307;50.828;6.080;2023-05-10T02:57:13;1.20;;;1.10;;
24143;SDS011;12307;50.828;6.080;2023-05-10T02:59:44;1.20;;;1.10;;
24143;SDS011;12307;50.828;6.080;2023-05-10T03:02:10;1.23;;;1.13;;
24143;SDS011;12307;50.828;6.080;2023-05-10T03:04:37;1.05;;;1.02;;
24143;SDS011;12307;50.828;6.080;2023-05-10T03:07:03;1.23;;;1.13;;
24143;SDS011;12307;50.828;6.080;2023-05-10T03:09:29;1.30;;;1.20;;
24143;SDS011;12307;50.828;6.080;2023-05-10T03:11:55;1.20;;;1.10;;
24143;SDS011;12307;50.828;6.080;2023-05-10T03:14:34;1.38;;;1.27;;
24143;SDS011;12307;50.828;6.080;2023-05-10T03:17:11;1.27;;;1.17;;
24143;SDS011;12307;50.828;6.080;2023-05-10T03:19:45;1.30;;;1.20;;
24143;SDS011;12307;50.828;6.080;2023-05-10T03:22:17;1.30;;;1.20;;
24143;SDS011;12307;50.828;6.080;2023-05-10T03:24:48;1.40;;;1.30;;
24143;SDS011;12307;50.828;6.080;2023-05-10T03:27:14;1.33;;;1.23;;
24143;SDS011;12307;50.828;6.080;2023-05-10T03:29:41;1.25;;;1.15;;
24143;SDS011;12307;50.828;6.080;2023-05-10T03:32:08;1.30;;;1.20;;
24143;SDS011;12307;50.828;6.080;2023-05-10T03:34:34;1.05;;;1.00;;
24143;SDS011;12307;50.828;6.080;2023-05-10T03:37:07;1.17;;;1.08;;
24143;SDS011;12307;50.828;6.080;2023-05-10T03:39:32;1.65;;;1.30;;
24143;SDS011;12307;50.828;6.080;2023-05-10T03:41:58;1.40;;;1.30;;
24143;SDS011;12307;50.828;6.080;2023-05-10T03:44:24;1.40;;;1.30;;
24143;SDS011;12307;50.828;6.080;2023-05-10T03:46:51;1.55;;;1.45;;
24143;SDS011;12307;50.828;6.080;2023-05-10T03:49:16;1.50;;;1.40;;
24143;SDS011;12307;50.828;6.080;2023-05-10T03:51:42;1.63;;;1.48;;
24143;SDS011;12307;50.828;6.080;2023-05-10T03:54:08;1.35;;;1.25;;
24143;SDS011;12307;50.828;6.080;2023-05-10T03:56:33;1.38;;;1.27;;
24143;SDS011;12307;50.828;6.080;2023-05-10T03:58:59;1.33;;;1.23;;
24143;SDS011;12307;50.828;6.080;2023-05-10T04:01:25;1.30;;;1.20;;
24143;SDS011;12307;50.828;6.080;2023-05-10T04:03:52;1.35;;;1.25;;
24143;SDS011;12307;50.828;6.080;2023-05-10T04:06:18;1.50;;;1.20;;
24143;SDS011;12307;50.828;6.080;2023-05-10T04:08:43;1.27;;;1.10;;
24143;SDS011;12307;50.828;6.080;2023-05-10T04:11:10;1.20;;;1.10;;
24143;SDS011;12307;50.828;6.080;2023-05-10T04:13:37;1.90;;;1.27;;
24143;SDS011;12307;50.828;6.080;2023-05-10T04:16:03;1.17;;;1.08;;
24143;SDS011;12307;50.828;6.080;2023-05-10T04:18:29;1.48;;;1.38;;
24143;SDS011;12307;50.828;6.080;2023-05-10T04:20:57;1.23;;;1.13;;
24143;SDS011;12307;50.828;6.080;2023-05-10T04:23:22;1.33;;;1.00;;
24143;SDS011;12307;50.828;6.080;2023-05-10T04:25:48;1.15;;;1.15;;
24143;SDS011;12307;50.828;6.080;2023-05-10T04:28:14;1.35;;;1.25;;
24143;SDS011;12307;50.828;6.080;2023-05-10T04:30:40;1.23;;;1.13;;
24143;SDS011;12307;50.828;6.080;2023-05-10T04:33:05;1.20;;;1.10;;
24143;SDS011;12307;50.828;6.080;2023-05-10T04:35:31;1.65;;;1.40;;
24143;SDS011;12307;50.828;6.080;2023-05-10T04:37:58;1.50;;;1.40;;
24143;SDS011;12307;50.828;6.080;2023-05-10T04:40:24;1.40;;;1.30;;
24143;SDS011;12307;50.828;6.080;2023-05-10T04:42:49;1.40;;;1.30;;
24143;SDS011;12307;50.828;6.080;2023-05-10T04:45:15;1.42;;;1.33;;
24143;SDS011;12307;50.828;6.080;2023-05-10T04:47:41;1.52;;;1.42;;
24143;SDS011;12307;50.828;6.080;2023-05-10T04:50:07;1.40;;;1.30;;
24143;SDS011;12307;50.828;6.080;2023-05-10T04:52:33;1.40;;;1.30;;
24143;SDS011;12307;50.828;6.080;2023-05-10T04:55:00;1.40;;;1.30;;
24143;SDS011;12307;50.828;6.080;2023-05-10T04:57:26;1.33;;;1.23;;
24143;SDS011;12307;50.828;6.080;2023-05-10T04:59:51;1.20;;;1.10;;
24143;SDS011;12307;50.828;6.080;2023-05-10T05:02:17;1.23;;;1.13;;
24143;SDS011;12307;50.828;6.080;2023-05-10T05:04:43;1.40;;;1.30;;
24143;SDS011;12307;50.828;6.080;2023-05-10T05:07:09;1.48;;;1.38;;
24143;SDS011;12307;50.828;6.080;2023-05-10T05:09:34;1.50;;;1.40;;
24143;SDS011;12307;50.828;6.080;2023-05-10T05:12:02;1.38;;;1.27;;
24143;SDS011;12307;50.828;6.080;2023-05-10T05:14:28;1.42;;;1.33;;
24143;SDS011;12307;50.828;6.080;2023-05-10T05:16:53;1.23;;;1.13;;
24143;SDS011;12307;50.828;6.080;2023-05-10T05:19:21;1.40;;;1.30;;
24143;SDS011;12307;50.828;6.080;2023-05-10T05:21:47;1.40;;;1.30;;
24143;SDS011;12307;50.828;6.080;2023-05-10T05:24:13;1.33;;;1.23;;
24143;SDS011;12307;50.828;6.080;2023-05-10T05:26:38;1.30;;;1.20;;
24143;SDS011;12307;50.828;6.080;2023-05-10T05:29:06;1.67;;;1.58;;
24143;SDS011;12307;50.828;6.080;2023-05-10T05:31:31;1.48;;;1.38;;
24143;SDS011;12307;50.828;6.080;2023-05-10T05:33:57;1.45;;;1.35;;
24143;SDS011;12307;50.828;6.080;2023-05-10T05:36:23;1.30;;;1.20;;
24143;SDS011;12307;50.828;6.080;2023-05-10T05:38:48;1.45;;;1.35;;
24143;SDS011;12307;50.828;6.080;2023-05-10T05:41:14;1.77;;;1.33;;
24143;SDS011;12307;50.828;6.080;2023-05-10T05:43:40;1.92;;;1.40;;
24143;SDS011;12307;50.828;6.080;2023-05-10T05:46:07;1.30;;;1.20;;
24143;SDS011;12307;50.828;6.080;2023-05-10T05:48:32;1.35;;;1.25;;
24143;SDS011;12307;50.828;6.080;2023-05-10T05:50:58;1.52;;;1.42;;
24143;SDS011;12307;50.828;6.080;2023-05-10T05:53:24;1.48;;;1.30;;
24143;SDS011;12307;50.828;6.080;2023-05-10T05:55:53;1.75;;;1.50;;
24143;SDS011;12307;50.828;6.080;2023-05-10T05:58:19;1.40;;;1.30;;
24143;SDS011;12307;50.828;6.080;2023-05-10T06:00:45;1.60;;;1.50;;
24143;SDS011;12307;50.828;6.080;2023-05-10T06:03:12;1.30;;;1.20;;
24143;SDS011;12307;50.828;6.080;2023-05-10T06:05:38;1.40;;;1.30;;
24143;SDS011;12307;50.828;6.080;2023-05-10T06:08:03;1.30;;;1.20;;
24143;SDS011;12307;50.828;6.080;2023-05-10T06:10:29;1.30;;;1.20;;
24143;SDS011;12307;50.828;6.080;2023-05-10T06:12:55;1.60;;;1.50;;
24143;SDS011;12307;50.828;6.080;2023-05-10T06:15:21;1.35;;;1.25;;
24143;SDS011;12307;50.828;6.080;2023-05-10T06:17:47;1.38;;;1.27;;
24143;SDS011;12307;50.828;6.080;2023-05-10T06:20:15;1.33;;;1.23;;
24143;SDS011;12307;50.828;6.080;2023-05-10T06:22:41;1.38;;;1.27;;
24143;SDS011;12307;50.828;6.080;2023-05-10T06:25:07;1.27;;;1.17;;
24143;SDS011;12307;50.828;6.080;2023-05-10T06:27:34;1.40;;;1.30;;
24143;SDS011;12307;50.828;6.080;2023-05-10T06:30:00;1.20;;;1.10;;
24143;SDS011;12307;50.828;6.080;2023-05-10T06:32:26;1.30;;;1.20;;
24143;SDS011;12307;50.828;6.080;2023-05-10T06:34:51;1.40;;;1.30;;
24143;SDS011;12307;50.828;6.080;2023-05-10T06:37:18;1.30;;;1.20;;
24143;SDS011;12307;50.828;6.080;2023-05-10T06:39:44;1.20;;;1.10;;
24143;SDS011;12307;50.828;6.080;2023-05-10T06:42:10;1.10;;;1.10;;
24143;SDS011;12307;50.828;6.080;2023-05-10T06:44:35;0.90;;;0.90;;
24143;SDS011;12307;50.828;6.080;2023-05-10T06:47:01;1.13;;;1.10;;
24143;SDS011;12307;50.828;6.080;2023-05-10T06:49:27;1.40;;;1.30;;
24143;SDS011;12307;50.828;6.080;2023-05-10T06:51:53;1.40;;;1.30;;
24143;SDS011;12307;50.828;6.080;2023-05-10T06:54:21;1.45;;;1.35;;
24143;SDS011;12307;50.828;6.080;2023-05-10T06:56:48;1.33;;;1.23;;
24143;SDS011;12307;50.828;6.080;2023-05-10T06:59:13;1.02;;;1.02;;
24143;SDS011;12307;50.828;6.080;2023-05-10T07:01:41;1.40;;;1.30;;
24143;SDS011;12307;50.828;6.080;2023-05-10T07:04:07;1.40;;;1.30;;
24143;SDS011;12307;50.828;6.080;2023-05-10T07:06:33;1.35;;;1.25;;
24143;SDS011;12307;50.828;6.080;2023-05-10T07:08:58;1.40;;;1.30;;
24143;SDS011;12307;50.828;6.080;2023-05-10T07:11:25;1.38;;;1.27;;
24143;SDS011;12307;50.828;6.080;2023-05-10T07:13:51;1.42;;;1.33;;
24143;SDS011;12307;50.828;6.080;2023-05-10T07:16:17;1.15;;;1.15;;
24143;SDS011;12307;50.828;6.080;2023-05-10T07:18:43;1.33;;;1.20;;
24143;SDS011;12307;50.828;6.080;2023-05-10T07:21:08;1.17;;;1.13;;
24143;SDS011;12307;50.828;6.080;2023-05-10T07:23:34;1.38;;;1.27;;
24143;SDS011;12307;50.828;6.080;2023-05-10T07:26:00;1.55;;;1.33;;
24143;SDS011;12307;50.828;6.080;2023-05-10T07:28:28;1.25;;;1.15;;
24143;SDS011;12307;50.828;6.080;2023-05-10T07:30:54;1.13;;;1.08;;
24143;SDS011;12307;50.828;6.080;2023-05-10T07:33:19;1.10;;;1.10;;
24143;SDS011;12307;50.828;6.080;2023-05-10T07:35:45;1.35;;;1.25;;
24143;SDS011;12307;50.828;6.080;2023-05-10T07:38:11;1.35;;;1.25;;
24143;SDS011;12307;50.828;6.080;2023-05-10T07:40:36;1.48;;;1.38;;
24143;SDS011;12307;50.828;6.080;2023-05-10T07:43:04;1.35;;;1.25;;
24143;SDS011;12307;50.828;6.080;2023-05-10T07:45:31;1.50;;;1.40;;
24143;SDS011;12307;50.828;6.080;2023-05-10T07:47:57;1.33;;;1.23;;
24143;SDS011;12307;50.828;6.080;2023-05-10T07:50:23;1.38;;;1.27;;
24143;SDS011;12307;50.828;6.080;2023-05-10T07:52:49;1.50;;;1.40;;
24143;SDS011;12307;50.828;6.080;2023-05-10T07:55:15;1.50;;;1.40;;
24143;SDS011;12307;50.828;6.080;2023-05-10T07:57:41;1.55;;;1.40;;
24143;SDS011;12307;50.828;6.080;2023-05-10T08:00:07;1.60;;;1.50;;
24143;SDS011;12307;50.828;6.080;2023-05-10T08:02:35;1.50;;;1.40;;
24143;SDS011;12307;50.828;6.080;2023-05-10T08:05:01;1.40;;;1.30;;
24143;SDS011;12307;50.828;6.080;2023-05-10T08:07:26;1.50;;;1.40;;
24143;SDS011;12307;50.828;6.080;2023-05-10T08:09:52;1.58;;;1.48;;
24143;SDS011;12307;50.828;6.080;2023-05-10T08:12:18;2.05;;;1.67;;
24143;SDS011;12307;50.828;6.080;2023-05-10T08:14:43;1.63;;;1.50;;
24143;SDS011;12307;50.828;6.080;2023-05-10T08:17:09;1.80;;;1.70;;
24143;SDS011;12307;50.828;6.080;2023-05-10T08:19:36;1.60;;;1.50;;
24143;SDS011;12307;50.828;6.080;2023-05-10T08:22:02;1.50;;;1.40;;
24143;SDS011;12307;50.828;6.080;2023-05-10T08:24:27;1.77;;;1.67;;
24143;SDS011;12307;50.828;6.080;2023-05-10T08:26:53;1.73;;;1.50;;
24143;SDS011;12307;50.828;6.080;2023-05-10T08:29:19;1.65;;;1.55;;
24143;SDS011;12307;50.828;6.080;2023-05-10T08:31:44;1.80;;;1.60;;
24143;SDS011;12307;50.828;6.080;2023-05-10T08:34:10;1.50;;;1.40;;
24143;SDS011;12307;50.828;6.080;2023-05-10T08:36:37;1.58;;;1.48;;
24143;SDS011;12307;50.828;6.080;2023-05-10T08:39:03;1.60;;;1.50;;
24143;SDS011;12307;50.828;6.080;2023-05-10T08:41:28;1.70;;;1.60;;
24143;SDS011;12307;50.828;6.080;2023-05-10T08:43:57;1.40;;;1.30;;
24143;SDS011;12307;50.828;6.080;2023-05-10T08:46:24;1.50;;;1.40;;
24143;SDS011;12307;50.828;6.080;2023-05-10T08:48:51;1.50;;;1.40;;
24143;SDS011;12307;50.828;6.080;2023-05-10T08:51:19;1.60;;;1.50;;
24143;SDS011;12307;50.828;6.080;2023-05-10T08:53:48;1.70;;;1.60;;
24143;SDS011;12307;50.828;6.080;2023-05-10T08:56:15;1.85;;;1.75;;
24143;SDS011;12307;50.828;6.080;2023-05-10T08:58:41;1.67;;;1.45;;
24143;SDS011;12307;50.828;6.080;2023-05-10T09:01:07;1.70;;;1.60;;
24143;SDS011;12307;50.828;6.080;2023-05-10T09:03:34;1.63;;;1.52;;
24143;SDS011;12307;50.828;6.080;2023-05-10T09:06:00;1.70;;;1.60;;
24143;SDS011;12307;50.828;6.080;2023-05-10T09:08:26;1.70;;;1.60;;
24143;SDS011;12307;50.828;6.080;2023-05-10T09:10:53;1.73;;;1.45;;
24143;SDS011;12307;50.828;6.080;2023-05-10T09:13:19;1.80;;;1.70;;
24143;SDS011;12307;50.828;6.080;2023-05-10T09:15:47;1.85;;;1.75;;
24143;SDS011;12307;50.828;6.080;2023-05-10T09:18:13;1.50;;;1.40;;
24143;SDS011;12307;50.828;6.080;2023-05-10T09:20:39;1.73;;;1.63;;
24143;SDS011;12307;50.828;6.080;2023-05-10T09:23:05;1.67;;;1.58;;
24143;SDS011;12307;50.828;6.080;2023-05-10T09:25:31;2.10;;;1.40;;
24143;SDS011;12307;50.828;6.080;2023-05-10T09:28:02;1.55;;;1.45;;
24143;SDS011;12307;50.828;6.080;2023-05-10T09:30:31;1.60;;;1.50;;
24143;SDS011;12307;50.828;6.080;2023-05-10T09:32:57;1.92;;;1.65;;
24143;SDS011;12307;50.828;6.080;2023-05-10T09:35:24;1.85;;;1.65;;
24143;SDS011;12307;50.828;6.080;2023-05-10T09:37:51;2.05;;;1.67;;
24143;SDS011;12307;50.828;6.080;2023-05-10T09:40:19;1.60;;;1.50;;
24143;SDS011;12307;50.828;6.080;2023-05-10T09:42:50;1.50;;;1.40;;
24143;SDS011;12307;50.828;6.080;2023-05-10T09:45:19;1.75;;;1.65;;
24143;SDS011;12307;50.828;6.080;2023-05-10T09:47:45;1.58;;;1.48;;
24143;SDS011;12307;50.828;6.080;2023-05-10T09:50:11;1.60;;;1.50;;
24143;SDS011;12307;50.828;6.080;2023-05-10T09:52:45;1.83;;;1.55;;
24143;SDS011;12307;50.828;6.080;2023-05-10T09:55:12;1.63;;;1.50;;
24143;SDS011;12307;50.828;6.080;2023-05-10T09:57:38;1.83;;;1.40;;
24143;SDS011;12307;50.828;6.080;2023-05-10T10:00:05;1.63;;;1.52;;
24143;SDS011;12307;50.828;6.080;2023-05-10T10:02:33;1.70;;;1.55;;
24143;SDS011;12307;50.828;6.080;2023-05-10T10:04:59;2.20;;;1.60;;
24143;SDS011;12307;50.828;6.080;2023-05-10T10:07:26;1.70;;;1.50;;
24143;SDS011;12307;50.828;6.080;2023-05-10T10:09:53;1.50;;;1.40;;
24143;SDS011;12307;50.828;6.080;2023-05-10T10:12:18;1.48;;;1.38;;
24143;SDS011;12307;50.828;6.080;2023-05-10T10:14:45;1.77;;;1.35;;
24143;SDS011;12307;50.828;6.080;2023-05-10T10:17:11;1.65;;;1.55;;
24143;SDS011;12307;50.828;6.080;2023-05-10T10:19:39;1.55;;;1.45;;
24143;SDS011;12307;50.828;6.080;2023-05-10T10:22:05;1.42;;;1.33;;
24143;SDS011;12307;50.828;6.080;2023-05-10T10:24:31;1.65;;;1.48;;
24143;SDS011;12307;50.828;6.080;2023-05-10T10:26:58;1.50;;;1.40;;
24143;SDS011;12307;50.828;6.080;2023-05-10T10:29:31;1.60;;;1.40;;
24143;SDS011;12307;50.828;6.080;2023-05-10T10:32:03;1.55;;;1.30;;
24143;SDS011;12307;50.828;6.080;2023-05-10T10:34:34;1.83;;;1.45;;
24143;SDS011;12307;50.828;6.080;2023-05-10T10:37:05;1.63;;;1.50;;
24143;SDS011;12307;50.828;6.080;2023-05-10T10:39:31;1.25;;;1.10;;
24143;SDS011;12307;50.828;6.080;2023-05-10T10:41:58;2.60;;;1.48;;
24143;SDS011;12307;50.828;6.080;2023-05-10T10:44:25;1.48;;;1.38;;
24143;SDS011;12307;50.828;6.080;2023-05-10T10:47:06;1.55;;;1.45;;
24143;SDS011;12307;50.828;6.080;2023-05-10T10:49:37;1.52;;;1.40;;
24143;SDS011;12307;50.828;6.080;2023-05-10T10:52:25;1.48;;;1.38;;
24143;SDS011;12307;50.828;6.080;2023-05-10T10:54:58;1.50;;;1.40;;
24143;SDS011;12307;50.828;6.080;2023-05-10T10:57:26;1.98;;;1.45;;
24143;SDS011;12307;50.828;6.080;2023-05-10T10:59:53;1.60;;;1.50;;
24143;SDS011;12307;50.828;6.080;2023-05-10T11:02:34;1.52;;;1.42;;
24143;SDS011;12307;50.828;6.080;2023-05-10T11:05:22;1.88;;;1.63;;
24143;SDS011;12307;50.828;6.080;2023-05-10T11:08:12;1.77;;;1.30;;
24143;SDS011;12307;50.828;6.080;2023-05-10T11:11:02;1.52;;;1.40;;
24143;SDS011;12307;50.828;6.080;2023-05-10T11:13:29;1.45;;;1.35;;
24143;SDS011;12307;50.828;6.080;2023-05-10T11:15:56;1.50;;;1.40;;
24143;SDS011;12307;50.828;6.080;2023-05-10T11:18:23;1.50;;;1.40;;
24143;SDS011;12307;50.828;6.080;2023-05-10T11:20:50;1.42;;;1.33;;
24143;SDS011;12307;50.828;6.080;2023-05-10T11:23:17;1.67;;;1.40;;
24143;SDS011;12307;50.828;6.080;2023-05-10T11:25:44;1.50;;;1.40;;
24143;SDS011;12307;50.828;6.080;2023-05-10T11:28:11;1.42;;;1.30;;
24143;SDS011;12307;50.828;6.080;2023-05-10T11:30:37;1.60;;;1.50;;
24143;SDS011;12307;50.828;6.080;2023-05-10T11:33:04;1.55;;;1.45;;
24143;SDS011;12307;50.828;6.080;2023-05-10T11:35:30;1.30;;;1.20;;
24143;SDS011;12307;50.828;6.080;2023-05-10T11:38:01;1.33;;;1.20;;
24143;SDS011;12307;50.828;6.080;2023-05-10T11:40:28;1.13;;;1.02;;
24143;SDS011;12307;50.828;6.080;2023-05-10T11:42:55;1.23;;;1.00;;
24143;SDS011;12307;50.828;6.080;2023-05-10T11:45:23;1.50;;;1.40;;
24143;SDS011;12307;50.828;6.080;2023-05-10T11:47:49;1.23;;;1.10;;
24143;SDS011;12307;50.828;6.080;2023-05-10T11:50:15;1.35;;;1.25;;
24143;SDS011;12307;50.828;6.080;2023-05-10T11:52:43;1.20;;;1.10;;
24143;SDS011;12307;50.828;6.080;2023-05-10T11:55:08;1.48;;;1.20;;
24143;SDS011;12307;50.828;6.080;2023-05-10T11:57:36;1.02;;;1.02;;
24143;SDS011;12307;50.828;6.080;2023-05-10T12:00:03;1.15;;;1.05;;
24143;SDS011;12307;50.828;6.080;2023-05-10T12:02:30;1.38;;;1.20;;
24143;SDS011;12307;50.828;6.080;2023-05-10T12:04:56;1.05;;;1.05;;
24143;SDS011;12307;50.828;6.080;2023-05-10T12:07:22;1.35;;;1.25;;
24143;SDS011;12307;50.828;6.080;2023-05-10T12:10:02;1.58;;;1.20;;
24143;SDS011;12307;50.828;6.080;2023-05-10T12:12:36;1.10;;;1.02;;
24143;SDS011;12307;50.828;6.080;2023-05-10T12:15:02;1.33;;;1.20;;
24143;SDS011;12307;50.828;6.080;2023-05-10T12:17:29;1.10;;;1.00;;
24143;SDS011;12307;50.828;6.080;2023-05-10T12:19:58;1.30;;;1.17;;
24143;SDS011;12307;50.828;6.080;2023-05-10T12:22:24;1.20;;;1.10;;
24143;SDS011;12307;50.828;6.080;2023-05-10T12:24:50;1.20;;;1.10;;
24143;SDS011;12307;50.828;6.080;2023-05-10T12:27:16;1.30;;;1.20;;
24143;SDS011;12307;50.828;6.080;2023-05-10T12:29:43;1.08;;;0.98;;
24143;SDS011;12307;50.828;6.080;2023-05-10T12:32:09;1.25;;;1.15;;
24143;SDS011;12307;50.828;6.080;2023-05-10T12:34:35;1.10;;;1.00;;
24143;SDS011;12307;50.828;6.080;2023-05-10T12:37:02;1.85;;;1.15;;
24143;SDS011;12307;50.828;6.080;2023-05-10T12:39:38;1.40;;;1.25;;
24143;SDS011;12307;50.828;6.080;2023-05-10T12:42:04;1.10;;;1.00;;
24143;SDS011;12307;50.828;6.080;2023-05-10T12:44:31;1.02;;;0.95;;
24143;SDS011;12307;50.828;6.080;2023-05-10T12:46:58;0.93;;;0.93;;
24143;SDS011;12307;50.828;6.080;2023-05-10T12:49:23;1.00;;;0.90;;
24143;SDS011;12307;50.828;6.080;2023-05-10T12:51:49;1.05;;;1.00;;
24143;SDS011;12307;50.828;6.080;2023-05-10T12:54:15;0.80;;;0.80;;
24143;SDS011;12307;50.828;6.080;2023-05-10T12:56:40;0.88;;;0.88;;
24143;SDS011;12307;50.828;6.080;2023-05-10T12:59:07;1.17;;;1.10;;
24143;SDS011;12307;50.828;6.080;2023-05-10T13:01:33;1.00;;;0.95;;
24143;SDS011;12307;50.828;6.080;2023-05-10T13:04:00;0.80;;;0.80;;
24143;SDS011;12307;50.828;6.080;2023-05-10T13:06:26;0.98;;;0.93;;
24143;SDS011;12307;50.828;6.080;2023-05-10T13:08:51;0.95;;;0.95;;
24143;SDS011;12307;50.828;6.080;2023-05-10T13:11:17;0.90;;;0.90;;
24143;SDS011;12307;50.828;6.080;2023-05-10T13:13:44;0.90;;;0.90;;
24143;SDS011;12307;50.828;6.080;2023-05-10T13:16:10;1.10;;;1.00;;
24143;SDS011;12307;50.828;6.080;2023-05-10T13:18:36;0.95;;;0.95;;
24143;SDS011;12307;50.828;6.080;2023-05-10T13:21:03;0.90;;;0.90;;
24143;SDS011;12307;50.828;6.080;2023-05-10T13:23:30;0.93;;;0.93;;
24143;SDS011;12307;50.828;6.080;2023-05-10T13:25:55;1.08;;;0.98;;
24143;SDS011;12307;50.828;6.080;2023-05-10T13:28:21;1.65;;;1.00;;
24143;SDS011;12307;50.828;6.080;2023-05-10T13:30:47;0.85;;;0.85;;
24143;SDS011;12307;50.828;6.080;2023-05-10T13:33:13;0.73;;;0.73;;
24143;SDS011;12307;50.828;6.080;2023-05-10T13:35:38;0.93;;;0.90;;
24143;SDS011;12307;50.828;6.080;2023-05-10T13:38:05;1.02;;;0.90;;
24143;SDS011;12307;50.828;6.080;2023-05-10T13:40:32;0.90;;;0.90;;
24143;SDS011;12307;50.828;6.080;2023-05-10T13:42:58;0.82;;;0.82;;
24143;SDS011;12307;50.828;6.080;2023-05-10T13:45:24;1.00;;;0.85;;
24143;SDS011;12307;50.828;6.080;2023-05-10T13:47:49;0.85;;;0.85;;
24143;SDS011;12307;50.828;6.080;2023-05-10T13:50:16;1.77;;;1.00;;
24143;SDS011;12307;50.828;6.080;2023-05-10T13:52:43;0.90;;;0.90;;
24143;SDS011;12307;50.828;6.080;2023-05-10T13:55:10;1.00;;;1.00;;
24143;SDS011;12307;50.828;6.080;2023-05-10T13:57:37;0.90;;;0.90;;
24143;SDS011;12307;50.828;6.080;2023-05-10T14:00:03;1.20;;;1.10;;
24143;SDS011;12307;50.828;6.080;2023-05-10T14:02:29;1.15;;;0.80;;
24143;SDS011;12307;50.828;6.080;2023-05-10T14:04:55;1.77;;;0.90;;
24143;SDS011;12307;50.828;6.080;2023-05-10T14:07:21;0.88;;;0.88;;
24143;SDS011;12307;50.828;6.080;2023-05-10T14:09:47;0.90;;;0.90;;
24143;SDS011;12307;50.828;6.080;2023-05-10T14:12:14;0.80;;;0.80;;
24143;SDS011;12307;50.828;6.080;2023-05-10T14:14:40;1.13;;;1.02;;
24143;SDS011;12307;50.828;6.080;2023-05-10T14:17:06;1.05;;;0.90;;
24143;SDS011;12307;50.828;6.080;2023-05-10T14:19:31;0.80;;;0.80;;
24143;SDS011;12307;50.828;6.080;2023-05-10T14:21:58;0.90;;;0.90;;
24143;SDS011;12307;50.828;6.080;2023-05-10T14:24:24;0.90;;;0.80;;
24143;SDS011;12307;50.828;6.080;2023-05-10T14:26:50;1.23;;;1.13;;
24143;SDS011;12307;50.828;6.080;2023-05-10T14:29:19;1.10;;;1.00;;
24143;SDS011;12307;50.828;6.080;2023-05-10T14:31:45;1.30;;;0.98;;
24143;SDS011;12307;50.828;6.080;2023-05-10T14:34:11;1.10;;;1.00;;
24143;SDS011;12307;50.828;6.080;2023-05-10T14:36:37;0.88;;;0.88;;
24143;SDS011;12307;50.828;6.080;2023-05-10T14:39:02;1.02;;;1.00;;
24143;SDS011;12307;50.828;6.080;2023-05-10T14:41:28;0.90;;;0.90;;
24143;SDS011;12307;50.828;6.080;2023-05-10T14:43:55;1.25;;;0.98;;
24143;SDS011;12307;50.828;6.080;2023-05-10T14:46:22;1.15;;;1.05;;
24143;SDS011;12307;50.828;6.080;2023-05-10T14:48:48;0.88;;;0.88;;
24143;SDS011;12307;50.828;6.080;2023-05-10T14:51:13;1.10;;;1.00;;
24143;SDS011;12307;50.828;6.080;2023-05-10T14:53:39;1.00;;;1.00;;